Terminal Aerodrome Forecast
Issued by NWS

Home | Current Version | Previous Version | Text Only | Print | Product List | Glossary On
Versions: 1 2 3 4 5 6 7 8 9 10 11 12 13 14 15 16 17 18 19 20 21 22 23 24 25 26 27 28
125
FTUS45 KPSR 232322
TAFPHX
TAF
KPHX 232322Z 2400/2424 27011G18KT P6SM FEW120
     FM240400 29007KT P6SM SCT250
     FM241000 10005KT P6SM SCT250
     FM242000 27007KT P6SM FEW120 SCT250=

USA.gov is the U.S. government's official web portal to all federal, state and local government web resources and services.